Historyczne dane pomiarowe

Dodano dane terminowe – wersja testowa.

Dane z okresu 1951-2019

Wersja bazy: 1.34 [2019-03-16, lista zmian], aktualizacja planowana na 2019-04-15

Dane meteo z obszaru Polski uzyskane na podstawie danych udostępnionych przez Instytut Meteorologii i Gospodarki Wodnej – Państwowy Instytut Badawczy.

 

Wybierz Datę:    

       

TemperaturaWilgotnośćWiatrCiśnienieOpadyŚniegCzas trwania zjawisk
 Stacja t tx tn tng RH VA  wxwx mslp ppp RRR   cm mm wxwxwxwxwxwxwx
1983-08-14 12.6 15.2 11.0- 87.5- 3.7 3.0---- 0.2------------
1983-08-13 14.2 19.1 12.0- 90.5- 7.0 3.7---- 5.4------------
1983-08-12 18.5 22.3 15.6- 88.5- 5.0 0.0---- 1.8------------
1983-08-11 17.4 21.6 15.7- 99.8- 7.0 2.7---- 17.2------------
1983-08-10 17.0 21.8 13.0- 92.3- 6.3 2.0---- 4.8------------
1983-08-09 17.0 24.6 12.2- 91.3- 6.0 2.3---- 11.2------------
1983-08-08 17.4 21.4 13.1- 91.5- 8.0 3.3---- 1.7------------
1983-08-07 16.3 20.2 14.1- 97.0- 7.7 2.7---- 5.5------------
1983-08-06 15.2 20.2 11.2- 76.3- 7.3 2.0---- 0.0------------
1983-08-05 12.0 13.5 10.2- 91.5- 7.3 1.7---- 0.0------------
1983-08-04 13.0 22.2 11.2- 93.5- 8.0 2.3---- 5.1------------
1983-08-03 20.8 25.1 17.1- 85.3- 5.7 2.0---- 7.5------------
1983-08-02 21.5 30.1 13.9- 71.3- 5.0 4.7---- 0.1------------
1983-08-01 17.8 26.1 8.1- 68.0- 0.0 3.0---- 0.0------------
1983-07-31 17.2 21.9 12.4- 67.0- 2.7 0.7---- 0.0------------
1983-07-30 16.6 20.6 12.8- 84.8- 5.0 2.7---- 1.5------------
1983-07-29 18.3 23.9 13.1- 73.5- 2.0 2.3---- 0.4------------
1983-07-28 20.7 26.2 17.1- 78.8- 5.0 1.7---- 0.0------------
1983-07-27 22.2 28.7 15.1- 75.3- 1.3 2.7---- 0.0------------
1983-07-26 18.8 25.0 14.8- 75.8- 5.3 4.3---- 0.0------------
1983-07-25 14.0 18.3 10.8- 83.0- 7.0 2.7---- 3.9------------
1983-07-24 14.6 16.8 13.6- 95.5- 8.0 0.0---- 2.7------------
1983-07-23 15.1 19.6 12.0- 81.0- 6.3 4.0---- 3.8------------
1983-07-22 12.6 14.9 9.9- 76.0- 8.0 5.7---- 2.7------------
1983-07-21 11.6 13.6 8.9- 74.8- 6.0 4.7---- 1.2------------
1983-07-20 17.0 25.6 12.0- 92.0- 8.0 4.7---- 3.1------------
1983-07-19 22.0 28.6 14.2- 66.3- 1.7 1.0---- 0.0------------
1983-07-18 20.8 27.6 13.2- 67.0- 0.3 1.3---- 0.0------------
1983-07-17 20.9 25.3 15.1- 74.0- 1.3 2.0---- 0.0------------
1983-07-16 19.4 26.4 11.1- 73.3- 1.3 1.0---- 0.0------------
1983-07-15 18.7 21.9 16.4- 67.5- 2.3 3.0---- 0.0------------
1983-07-14 17.1 21.0 15.5- 96.3- 8.0 2.0---- 2.3------------
1983-07-13 16.0 18.7 14.4- 98.3- 7.7 3.3---- 41.6------------
1983-07-12 16.5 21.0 14.2- 98.0- 7.0 2.3---- 3.5------------
1983-07-11 17.6 23.4 14.6- 88.5- 6.3 1.3---- 13.4------------
1983-07-10 21.3 26.7 13.7- 66.0- 1.3 1.7---- 0.7------------
1983-07-09 19.4 25.8 10.5- 71.3- 0.3 1.3---- 0.0------------
1983-07-08 19.4 25.0 10.2- 61.3- 0.7 0.7---- 0.0------------
1983-07-07 20.1 26.1 12.0- 63.0- 0.0 1.3---- 0.0------------
1983-07-06 19.9 26.0 12.8- 68.3- 0.0 0.7---- 0.0------------
1983-07-05 19.0 26.0 10.9- 69.3- 3.0 1.7---- 0.0------------
1983-07-04 17.8 24.7 10.4- 67.0- 0.7 0.7---- 0.0------------
1983-07-03 18.4 22.7 15.2- 69.3- 3.7 3.7---- 0.0------------
1983-07-02 18.0 21.6 14.4- 88.3- 6.3 3.3---- 8.6------------
1983-07-01 18.6 26.1 12.9- 76.3- 3.0 2.7---- 0.0------------
1983-06-30 15.0 21.6 6.7- 77.5- 1.3 1.7---- 0.0------------
1983-06-29 15.2 17.6 12.6- 65.8- 5.7 2.7---- 0.0------------
1983-06-28 16.8 20.8 15.2- 94.0- 8.0 4.0---- 18.7------------
1983-06-27 19.6 25.6 13.2- 80.8- 2.7 1.7---- 0.4------------
1983-06-26 17.2 22.5 14.2- 94.0- 7.0 1.7---- 7.1------------
1983-06-25 20.5 25.7 14.0- 56.5- 0.3 2.3---- 0.1------------
1983-06-24 15.9 24.2 5.8- 70.0- 0.3 0.3---- 0.0------------
1983-06-23 13.9 19.8 4.5- 60.0- 0.0 1.3---- 0.0------------
1983-06-22 15.2 22.2 12.4- 57.8- 0.0 3.0---- 0.0------------
1983-06-21 18.6 23.8 13.2- 75.3- 5.3 1.7---- 0.0------------
1983-06-20 17.1 21.1 15.8- 95.5- 6.7 1.0---- 0.4------------
1983-06-19 16.4 22.4 11.7- 89.3- 7.0 2.0---- 27.7------------
1983-06-18 11.8 13.2 10.5- 98.0- 8.0 3.3---- 26.9------------
1983-06-17 11.6 13.0 10.6- 87.3- 8.0 3.7---- 10.1------------
1983-06-16 11.5 16.3 10.0- 99.5- 8.0 3.0---- 10.6------------
401.0 ms

 

Źródłem pochodzenia danych jest Instytut Meteorologii i Gospodarki Wodnej – Państwowy Instytut Badawczy. Dane Instytutu Meteorologii i Gospodarki Wodnej – Państwowego Instytutu Badawczego zostały przetworzone.

Dane źródłowe można odnaleźć na stronie https://dane.imgw.pl